createdAt,value
2023-03-04T00:00:47.979Z,14.90
2023-03-04T00:03:18.348Z,14.03
2023-03-04T00:05:47.305Z,15.10
2023-03-04T00:08:14.846Z,14.00
2023-03-04T00:10:42.347Z,14.83
2023-03-04T00:13:10.414Z,13.43
2023-03-04T00:15:37.797Z,14.03
2023-03-04T00:18:05.241Z,14.67
2023-03-04T00:20:32.695Z,13.40
2023-03-04T00:23:00.066Z,13.87
2023-03-04T00:25:27.618Z,13.03
2023-03-04T00:27:54.976Z,14.37
2023-03-04T00:30:22.476Z,13.63
2023-03-04T00:32:50.401Z,12.83
2023-03-04T00:35:18.118Z,14.27
2023-03-04T00:37:45.520Z,13.33
2023-03-04T00:40:13.391Z,15.03
2023-03-04T00:42:40.771Z,13.17
2023-03-04T00:45:09.477Z,13.73
2023-03-04T00:47:36.892Z,14.37
2023-03-04T00:50:05.109Z,13.37
2023-03-04T00:52:33.438Z,14.60
2023-03-04T00:55:00.882Z,12.80
2023-03-04T00:57:28.515Z,13.60
2023-03-04T00:59:56.187Z,14.23
2023-03-04T01:02:25.041Z,13.87
2023-03-04T01:04:53.720Z,13.97
2023-03-04T01:07:22.420Z,13.73
2023-03-04T01:09:49.854Z,13.73
2023-03-04T01:12:17.285Z,12.90
2023-03-04T01:14:44.707Z,11.90
2023-03-04T01:17:13.961Z,11.50
2023-03-04T01:19:42.352Z,12.37
2023-03-04T01:22:11.010Z,11.80
2023-03-04T01:24:38.381Z,12.00
2023-03-04T01:27:07.030Z,11.77
2023-03-04T01:29:34.484Z,11.60
2023-03-04T01:32:03.383Z,11.20
2023-03-04T01:34:30.992Z,12.13
2023-03-04T01:36:58.469Z,11.90
2023-03-04T01:39:26.030Z,12.33
2023-03-04T01:41:53.672Z,12.73
2023-03-04T01:44:21.334Z,12.60
2023-03-04T01:46:52.357Z,12.17
2023-03-04T01:49:19.957Z,12.03
2023-03-04T01:51:53.494Z,10.70
2023-03-04T01:54:22.700Z,11.83
2023-03-04T01:56:52.257Z,11.30
2023-03-04T01:59:30.088Z,10.33
2023-03-04T02:02:00.492Z,10.33
2023-03-04T02:04:31.239Z,11.13
2023-03-04T02:07:01.189Z,11.33
2023-03-04T02:09:30.056Z,12.33
2023-03-04T02:11:58.037Z,11.00
2023-03-04T02:14:25.520Z,10.87
2023-03-04T02:16:53.162Z,10.60
2023-03-04T02:19:46.811Z,10.40
2023-03-04T02:22:14.947Z,10.80
2023-03-04T02:24:54.551Z,10.73
2023-03-04T02:27:22.279Z,9.53
2023-03-04T02:29:50.476Z,10.00
2023-03-04T02:32:18.192Z,11.50
2023-03-04T02:34:51.991Z,12.07
2023-03-04T02:37:21.868Z,11.67
2023-03-04T02:39:53.052Z,11.43
2023-03-04T02:42:20.588Z,11.43
2023-03-04T02:44:50.481Z,10.60
2023-03-04T02:47:20.304Z,11.30
2023-03-04T02:49:49.306Z,11.07
2023-03-04T02:52:22.399Z,12.20
2023-03-04T02:54:49.841Z,10.90
2023-03-04T02:57:18.110Z,10.70
2023-03-04T02:59:49.390Z,12.10
2023-03-04T03:02:21.304Z,12.10
2023-03-04T03:04:48.844Z,12.13
2023-03-04T03:07:18.985Z,11.37
2023-03-04T03:09:46.776Z,12.60
2023-03-04T03:12:14.198Z,11.27
2023-03-04T03:14:41.797Z,10.90
2023-03-04T03:17:11.760Z,11.37
2023-03-04T03:19:39.239Z,12.23
2023-03-04T03:22:08.208Z,11.30
2023-03-04T03:24:35.745Z,11.30
2023-03-04T03:27:03.245Z,13.53
2023-03-04T03:29:31.537Z,10.37
2023-03-04T03:31:59.601Z,10.47
2023-03-04T03:34:27.143Z,11.67
2023-03-04T03:36:54.601Z,11.33
2023-03-04T03:39:22.420Z,11.90
2023-03-04T03:41:50.142Z,11.77
2023-03-04T03:44:17.699Z,12.10
2023-03-04T03:46:45.272Z,12.47
2023-03-04T03:49:13.030Z,11.43
2023-03-04T03:51:40.502Z,10.97
2023-03-04T03:54:07.875Z,11.50
2023-03-04T03:56:35.316Z,12.70
2023-03-04T03:59:02.814Z,11.47
2023-03-04T04:01:30.214Z,11.27
2023-03-04T04:03:57.678Z,11.07
2023-03-04T04:06:25.228Z,10.57
2023-03-04T04:08:52.751Z,10.33
2023-03-04T04:11:20.141Z,10.83
2023-03-04T04:13:47.601Z,11.07
2023-03-04T04:16:15.012Z,11.27
2023-03-04T04:18:42.463Z,9.90
2023-03-04T04:21:09.917Z,10.33
2023-03-04T04:23:37.385Z,10.43
2023-03-04T04:26:05.109Z,10.30
2023-03-04T04:28:32.788Z,11.07
2023-03-04T04:31:00.342Z,10.83
2023-03-04T04:33:27.793Z,12.33
2023-03-04T04:35:55.301Z,10.50
2023-03-04T04:38:22.749Z,10.77
2023-03-04T04:40:50.274Z,9.53
2023-03-04T04:43:17.766Z,10.50
2023-03-04T04:45:45.822Z,10.87
2023-03-04T04:48:13.238Z,11.80
2023-03-04T04:50:40.683Z,10.90
2023-03-04T04:53:08.057Z,11.10
2023-03-04T04:55:35.463Z,10.40
2023-03-04T04:58:02.866Z,10.00
2023-03-04T05:00:30.310Z,11.47
2023-03-04T05:02:57.934Z,10.13
2023-03-04T05:05:25.598Z,9.93
2023-03-04T05:07:53.041Z,10.90
2023-03-04T05:10:20.626Z,10.30
2023-03-04T05:12:48.098Z,10.07
2023-03-04T05:15:15.863Z,10.17
2023-03-04T05:17:43.318Z,10.93
2023-03-04T05:20:11.731Z,9.90
2023-03-04T05:22:39.187Z,9.40
2023-03-04T05:25:07.500Z,10.57
2023-03-04T05:27:34.946Z,10.00
2023-03-04T05:30:02.421Z,11.20
2023-03-04T05:32:29.842Z,9.87
2023-03-04T05:34:57.485Z,11.20
2023-03-04T05:37:24.944Z,10.70
2023-03-04T05:39:52.389Z,11.70
2023-03-04T05:42:19.909Z,9.37
2023-03-04T05:44:47.372Z,10.23
2023-03-04T05:47:15.066Z,9.70
2023-03-04T05:49:42.776Z,10.80
2023-03-04T05:52:10.527Z,10.33
2023-03-04T05:54:37.993Z,9.57
2023-03-04T05:57:05.784Z,10.50
2023-03-04T05:59:33.173Z,10.07
2023-03-04T06:02:00.739Z,9.47
2023-03-04T06:04:28.073Z,9.83
2023-03-04T06:06:55.621Z,9.93
2023-03-04T06:09:23.005Z,9.63
2023-03-04T06:11:50.525Z,9.70
2023-03-04T06:14:18.122Z,9.13
2023-03-04T06:16:45.621Z,9.50
2023-03-04T06:19:12.971Z,9.60
2023-03-04T06:21:40.448Z,10.20
2023-03-04T06:24:07.953Z,9.67
2023-03-04T06:26:35.410Z,9.73
2023-03-04T06:29:02.910Z,8.80
2023-03-04T06:31:30.341Z,9.23
2023-03-04T06:33:57.780Z,9.03
2023-03-04T06:36:25.307Z,8.63
2023-03-04T06:38:52.727Z,9.73
2023-03-04T06:41:20.192Z,8.20
2023-03-04T06:43:47.655Z,8.90
2023-03-04T06:46:15.077Z,8.83
2023-03-04T06:48:42.598Z,9.37
2023-03-04T06:51:11.750Z,9.70
2023-03-04T06:53:40.439Z,10.30
2023-03-04T06:56:10.095Z,11.00
2023-03-04T06:58:37.686Z,9.03
2023-03-04T07:01:17.470Z,9.13
2023-03-04T07:03:45.326Z,10.20
2023-03-04T07:06:14.559Z,9.23
2023-03-04T07:08:42.812Z,9.40
2023-03-04T07:11:11.010Z,8.33
2023-03-04T07:13:38.560Z,8.93
2023-03-04T07:16:08.136Z,8.20
2023-03-04T07:18:37.265Z,8.47
2023-03-04T07:21:05.897Z,8.90
2023-03-04T07:23:34.277Z,8.80
2023-03-04T07:26:01.817Z,9.57
2023-03-04T07:28:29.300Z,9.30
2023-03-04T07:30:56.752Z,8.40
2023-03-04T07:33:24.281Z,10.20
2023-03-04T07:36:01.593Z,8.80
2023-03-04T07:38:29.023Z,8.80
2023-03-04T07:40:59.598Z,9.27
2023-03-04T07:43:27.412Z,9.40
2023-03-04T07:46:00.892Z,8.40
2023-03-04T07:48:28.940Z,8.57
2023-03-04T07:51:11.838Z,8.23
2023-03-04T07:53:41.244Z,8.93
2023-03-04T07:56:11.562Z,8.73
2023-03-04T07:58:38.956Z,8.47
2023-03-04T08:01:14.615Z,8.50
2023-03-04T08:03:42.453Z,8.20
2023-03-04T08:06:12.774Z,8.10
2023-03-04T08:08:41.085Z,8.43
2023-03-04T08:11:13.736Z,7.10
2023-03-04T08:13:41.203Z,7.07
2023-03-04T08:16:10.564Z,7.80
2023-03-04T08:18:39.795Z,7.93
2023-03-04T08:21:13.822Z,7.77
2023-03-04T08:23:42.640Z,9.90
2023-03-04T08:26:13.537Z,7.17
2023-03-04T08:28:41.589Z,8.07
2023-03-04T08:31:09.111Z,7.87
2023-03-04T08:33:36.576Z,7.50
2023-03-04T08:36:04.506Z,7.90
2023-03-04T08:38:34.951Z,7.70
2023-03-04T08:41:04.107Z,8.00
2023-03-04T08:43:33.247Z,7.70
2023-03-04T08:46:01.091Z,7.93
2023-03-04T08:48:28.528Z,8.23
2023-03-04T08:50:56.024Z,7.20
2023-03-04T08:53:23.520Z,7.87
2023-03-04T08:55:53.049Z,7.53
2023-03-04T08:58:20.513Z,8.37
2023-03-04T09:00:51.588Z,8.27
2023-03-04T09:03:20.510Z,7.15
2023-03-04T09:05:49.394Z,7.70
2023-03-04T09:08:17.374Z,7.20
2023-03-04T09:10:45.994Z,7.70
2023-03-04T09:13:17.207Z,8.23
2023-03-04T09:15:47.255Z,6.93
2023-03-04T09:18:15.332Z,7.20
2023-03-04T09:20:42.831Z,7.40
2023-03-04T09:23:10.494Z,7.03
2023-03-04T09:25:39.277Z,7.37
2023-03-04T09:28:07.293Z,6.37
2023-03-04T09:30:35.325Z,7.17
2023-03-04T09:33:03.073Z,7.93
2023-03-04T09:35:30.790Z,7.10
2023-03-04T09:37:59.153Z,6.80
2023-03-04T09:40:48.474Z,6.93
2023-03-04T09:43:22.208Z,6.57
2023-03-04T09:45:55.326Z,6.73
2023-03-04T09:48:26.051Z,6.97
2023-03-04T09:51:37.702Z,7.77
2023-03-04T09:54:52.225Z,6.53
2023-03-04T09:57:30.334Z,6.47
2023-03-04T10:00:19.801Z,6.87
2023-03-04T10:03:20.266Z,6.20
2023-03-04T10:06:07.435Z,6.23
2023-03-04T10:08:51.617Z,5.20
2023-03-04T10:11:44.638Z,6.37
2023-03-04T10:14:29.777Z,5.37
2023-03-04T10:17:23.826Z,6.50
2023-03-04T10:19:59.136Z,6.03
2023-03-04T10:22:34.171Z,5.50
2023-03-04T10:25:27.917Z,5.43
2023-03-04T10:27:59.269Z,5.40
2023-03-04T10:31:01.962Z,5.30
2023-03-04T10:36:39.781Z,4.87
2023-03-04T10:39:13.239Z,5.20
2023-03-04T10:41:46.380Z,6.00
2023-03-04T10:44:18.506Z,5.10
2023-03-04T10:49:19.547Z,6.60
2023-03-04T10:52:15.200Z,5.50
2023-03-04T10:54:55.488Z,4.83
2023-03-04T10:57:44.973Z,5.57
2023-03-04T11:00:38.872Z,5.67
2023-03-04T11:03:34.544Z,5.23
2023-03-04T11:06:22.516Z,4.50
2023-03-04T11:08:58.337Z,5.47
2023-03-04T11:11:37.770Z,4.00
2023-03-04T11:14:21.787Z,4.50
2023-03-04T11:17:22.735Z,4.40
2023-03-04T11:20:23.082Z,4.23
2023-03-04T11:22:52.416Z,4.17
2023-03-04T11:25:28.939Z,4.60
2023-03-04T11:28:21.274Z,3.20
2023-03-04T11:30:58.411Z,3.07
2023-03-04T11:33:36.384Z,3.47
2023-03-04T11:36:30.346Z,3.53
2023-03-04T11:38:58.768Z,3.53
2023-03-04T11:41:32.276Z,3.60
2023-03-04T11:44:00.783Z,4.03
2023-03-04T11:47:18.246Z,3.70
2023-03-04T11:50:15.046Z,5.03
2023-03-04T11:53:05.173Z,3.53
2023-03-04T11:56:04.948Z,3.40
2023-03-04T11:59:17.386Z,3.37
2023-03-04T12:02:12.626Z,3.35
2023-03-04T12:05:24.772Z,4.20
2023-03-04T12:08:43.445Z,3.47
2023-03-04T12:11:54.474Z,3.33
2023-03-04T12:15:13.565Z,2.95
2023-03-04T12:41:09.766Z,2.95
2023-03-04T12:43:46.514Z,2.78
2023-03-04T12:46:42.040Z,2.50
2023-03-04T12:49:41.385Z,2.72
2023-03-04T12:52:50.899Z,2.95
2023-03-04T12:55:25.287Z,3.05
2023-03-04T12:57:55.879Z,2.63
2023-03-04T13:00:49.937Z,2.42
2023-03-04T13:03:58.404Z,2.30
2023-03-04T13:06:41.558Z,2.00
2023-03-04T13:09:34.090Z,2.60
2023-03-04T13:12:22.529Z,2.63
2023-03-04T13:15:30.049Z,2.53
2023-03-04T13:18:25.318Z,2.92
2023-03-04T13:21:22.329Z,2.00
2023-03-04T13:23:50.866Z,2.05
2023-03-04T13:26:24.562Z,2.28
2023-03-04T13:29:10.684Z,2.25
2023-03-04T13:31:57.655Z,2.20
2023-03-04T13:34:46.397Z,2.10
2023-03-04T13:37:32.826Z,1.95
2023-03-04T13:40:35.699Z,2.25
2023-03-04T13:43:26.061Z,1.35
2023-03-04T13:45:53.679Z,1.75
2023-03-04T13:48:30.683Z,1.50
2023-03-04T13:50:59.185Z,1.58
2023-03-04T13:53:40.787Z,1.48
2023-03-04T13:56:41.589Z,1.27
2023-03-04T13:59:33.853Z,1.45
2023-03-04T14:02:22.181Z,1.20
2023-03-04T14:05:00.802Z,1.30
2023-03-04T14:07:30.750Z,1.05
2023-03-04T14:10:20.571Z,1.00
2023-03-04T14:12:54.872Z,1.38
2023-03-04T14:15:27.818Z,1.40
2023-03-04T14:17:58.255Z,1.40
2023-03-04T14:20:48.091Z,1.83
2023-03-04T14:23:42.039Z,1.10
2023-03-04T14:26:15.820Z,1.85
2023-03-04T14:28:49.031Z,1.40
2023-03-04T14:31:19.720Z,1.70
2023-03-04T14:33:51.512Z,1.33
2023-03-04T14:36:23.511Z,1.75
2023-03-04T14:41:45.405Z,1.77
2023-03-04T14:44:51.099Z,1.35
2023-03-04T14:47:30.733Z,1.23
2023-03-04T14:49:58.198Z,0.98
2023-03-04T14:52:44.217Z,1.15
2023-03-04T14:55:29.640Z,1.33
2023-03-04T14:58:08.899Z,1.40
2023-03-04T15:00:41.007Z,1.33
2023-03-04T15:05:49.833Z,1.50
2023-03-04T15:08:27.858Z,1.50
2023-03-04T15:11:00.717Z,1.45
2023-03-04T15:13:49.877Z,1.30
2023-03-04T15:16:19.986Z,1.90
2023-03-04T15:19:26.990Z,3.65
2023-03-04T15:22:04.719Z,1.52
2023-03-04T15:24:32.193Z,0.95
2023-03-04T15:26:59.651Z,4.88
2023-03-04T15:29:27.161Z,1.52
2023-03-04T15:31:54.565Z,1.98
2023-03-04T15:34:22.120Z,3.80
2023-03-04T15:36:51.209Z,1.88
2023-03-04T15:39:21.756Z,1.63
2023-03-04T15:41:50.629Z,1.40
2023-03-04T15:44:18.228Z,2.28
2023-03-04T15:46:45.615Z,1.20
2023-03-04T15:49:13.063Z,2.20
2023-03-04T15:51:40.606Z,1.35
2023-03-04T15:54:14.010Z,1.50
2023-03-04T15:56:41.585Z,1.10
2023-03-04T15:59:17.461Z,1.98
2023-03-04T16:01:45.163Z,1.88
2023-03-04T16:04:17.010Z,1.80
2023-03-04T16:06:50.350Z,1.30
2023-03-04T16:09:21.193Z,1.80
2023-03-04T16:11:48.811Z,1.73
2023-03-04T16:14:16.891Z,1.40
2023-03-04T16:16:44.510Z,1.67
2023-03-04T16:19:11.995Z,1.83
2023-03-04T16:21:40.564Z,1.77
2023-03-04T16:24:17.292Z,1.40
2023-03-04T16:26:44.777Z,1.10
2023-03-04T16:29:12.280Z,1.70
2023-03-04T16:31:39.678Z,1.83
2023-03-04T16:34:07.200Z,1.83
2023-03-04T16:36:36.221Z,1.23
2023-03-04T16:39:09.494Z,1.80
2023-03-04T16:41:37.343Z,1.50
2023-03-04T16:44:06.079Z,1.88
2023-03-04T16:46:33.680Z,1.50
2023-03-04T16:49:01.110Z,2.37
2023-03-04T16:51:41.083Z,1.90
2023-03-04T16:54:18.934Z,2.75
2023-03-04T16:56:46.360Z,2.53
2023-03-04T16:59:17.740Z,2.13
2023-03-04T17:01:45.417Z,2.25
2023-03-04T17:04:12.794Z,1.80
2023-03-04T17:06:40.279Z,1.80
2023-03-04T17:09:08.209Z,2.23
2023-03-04T17:11:36.370Z,1.93
2023-03-04T17:14:04.179Z,1.83
2023-03-04T17:16:31.847Z,2.37
2023-03-04T17:18:59.252Z,2.63
2023-03-04T17:21:27.780Z,2.73
2023-03-04T17:23:55.175Z,2.57
2023-03-04T17:26:23.160Z,3.20
2023-03-04T17:28:51.655Z,2.43
2023-03-04T17:31:20.274Z,3.53
2023-03-04T17:33:48.392Z,2.63
2023-03-04T17:36:17.529Z,1.83
2023-03-04T17:38:45.024Z,2.00
2023-03-04T17:41:16.210Z,2.47
2023-03-04T17:43:48.619Z,1.90
2023-03-04T17:46:19.189Z,2.40
2023-03-04T17:48:46.823Z,1.60
2023-03-04T17:51:14.574Z,2.07
2023-03-04T17:53:42.012Z,1.97
2023-03-04T17:56:12.117Z,1.73
2023-03-04T17:58:40.189Z,1.77
2023-03-04T18:01:20.665Z,2.00
2023-03-04T18:03:48.975Z,2.10
2023-03-04T18:06:17.248Z,1.80
2023-03-04T18:08:45.267Z,1.53
2023-03-04T18:11:12.712Z,1.50
2023-03-04T18:13:41.570Z,1.57
2023-03-04T18:16:09.685Z,1.60
2023-03-04T18:18:37.833Z,2.20
2023-03-04T18:21:05.622Z,2.00
2023-03-04T18:23:33.832Z,1.93
2023-03-04T18:26:02.553Z,1.97
2023-03-04T18:28:30.145Z,1.80
2023-03-04T18:30:57.527Z,1.70
2023-03-04T18:33:25.197Z,1.90
2023-03-04T18:36:02.290Z,1.80
2023-03-04T18:38:30.154Z,1.83
2023-03-04T18:41:02.892Z,1.67
2023-03-04T18:43:30.373Z,2.27
2023-03-04T18:46:10.725Z,1.90
2023-03-04T18:48:46.705Z,2.47
2023-03-04T18:51:14.102Z,2.57
2023-03-04T18:53:41.592Z,2.37
2023-03-04T18:56:19.296Z,2.63
2023-03-04T18:58:50.529Z,1.60
2023-03-04T19:01:22.980Z,2.20
2023-03-04T19:03:51.008Z,2.10
2023-03-04T19:06:18.646Z,2.70
2023-03-04T19:08:46.153Z,3.60
2023-03-04T19:11:13.622Z,4.93
2023-03-04T19:13:41.064Z,3.60
2023-03-04T19:16:08.794Z,13.97
2023-03-04T19:18:36.389Z,11.53
2023-03-04T19:21:05.393Z,5.60
2023-03-04T19:23:33.228Z,9.63
2023-03-04T19:26:01.051Z,3.67
2023-03-04T19:28:28.506Z,6.33
2023-03-04T19:30:59.227Z,4.37
2023-03-04T19:33:27.075Z,3.60
2023-03-04T19:35:54.595Z,3.43
2023-03-04T19:38:22.469Z,2.87
2023-03-04T19:40:49.818Z,4.10
2023-03-04T19:43:17.272Z,3.80
2023-03-04T19:45:53.227Z,3.30
2023-03-04T19:48:20.656Z,4.03
2023-03-04T19:50:48.289Z,4.97
2023-03-04T19:53:19.197Z,3.97
2023-03-04T19:55:49.176Z,2.87
2023-03-04T19:58:17.079Z,2.80
2023-03-04T20:00:45.237Z,2.90
2023-03-04T20:03:13.525Z,3.33
2023-03-04T20:05:41.067Z,3.43
2023-03-04T20:08:08.461Z,3.67
2023-03-04T20:10:37.167Z,3.10
2023-03-04T20:13:07.149Z,2.00
2023-03-04T20:15:35.291Z,2.50
2023-03-04T20:18:02.947Z,3.00
2023-03-04T20:20:30.342Z,2.70
2023-03-04T20:22:58.082Z,2.70
2023-03-04T20:25:25.863Z,2.40
2023-03-04T20:27:53.241Z,4.83
2023-03-04T20:30:20.909Z,4.83
2023-03-04T20:32:48.366Z,2.80
2023-03-04T20:35:15.892Z,3.20
2023-03-04T20:37:43.397Z,5.50
2023-03-04T20:40:12.102Z,4.23
2023-03-04T20:42:39.556Z,4.80
2023-03-04T20:45:07.993Z,2.63
2023-03-04T20:47:36.396Z,3.73
2023-03-04T20:50:06.114Z,3.70
2023-03-04T20:52:33.496Z,3.20
2023-03-04T20:55:00.927Z,3.27
2023-03-04T20:57:30.332Z,4.80
2023-03-04T20:59:57.818Z,4.40
2023-03-04T21:02:25.668Z,4.03
2023-03-04T21:04:53.977Z,3.13
2023-03-04T21:07:21.365Z,3.17
2023-03-04T21:09:48.806Z,3.53
2023-03-04T21:12:16.307Z,2.67
2023-03-04T21:14:45.033Z,2.37
2023-03-04T21:17:12.843Z,3.97
2023-03-04T21:19:44.776Z,3.00
2023-03-04T21:22:17.500Z,2.55
2023-03-04T21:24:46.187Z,3.07
2023-03-04T21:27:16.589Z,3.13
2023-03-04T21:29:44.391Z,3.70
2023-03-04T21:32:25.495Z,2.50
2023-03-04T21:34:55.332Z,2.77
2023-03-04T21:37:24.707Z,3.00
2023-03-04T21:39:52.363Z,2.40
2023-03-04T21:42:20.119Z,2.43
2023-03-04T21:44:50.692Z,3.33
2023-03-04T21:47:21.077Z,3.25
2023-03-04T21:49:48.896Z,2.77
2023-03-04T21:52:21.354Z,2.20
2023-03-04T21:54:49.650Z,3.43
2023-03-04T21:57:18.003Z,2.70
2023-03-04T21:59:45.586Z,2.57
2023-03-04T22:02:18.868Z,1.87
2023-03-04T22:04:46.736Z,2.00
2023-03-04T22:07:14.324Z,3.00
2023-03-04T22:09:41.806Z,2.03
2023-03-04T22:12:09.308Z,2.30
2023-03-04T22:14:36.750Z,2.47
2023-03-04T22:17:04.450Z,1.97
2023-03-04T22:19:32.636Z,2.30
2023-03-04T22:22:00.396Z,2.20
2023-03-04T22:24:27.917Z,2.10
2023-03-04T22:26:57.665Z,2.23
2023-03-04T22:29:25.073Z,2.30
2023-03-04T22:31:52.606Z,2.27
2023-03-04T22:34:20.089Z,2.37
2023-03-04T22:36:49.356Z,1.53
2023-03-04T22:39:20.573Z,1.83
2023-03-04T22:41:48.057Z,2.60
2023-03-04T22:44:15.536Z,1.93
2023-03-04T22:46:43.737Z,2.80
2023-03-04T22:49:13.167Z,2.33
2023-03-04T22:51:42.833Z,1.83
2023-03-04T22:54:16.207Z,2.60
2023-03-04T22:56:44.296Z,2.83
2023-03-04T22:59:12.367Z,2.53
2023-03-04T23:01:39.887Z,2.30
2023-03-04T23:04:07.350Z,3.10
2023-03-04T23:06:35.055Z,2.03
2023-03-04T23:09:02.450Z,2.00
2023-03-04T23:11:35.349Z,1.57
2023-03-04T23:14:06.922Z,1.67
2023-03-04T23:16:42.631Z,2.08
2023-03-04T23:19:16.801Z,2.40
2023-03-04T23:21:44.699Z,1.87
2023-03-04T23:24:13.083Z,1.53
2023-03-04T23:26:41.918Z,1.80
2023-03-04T23:29:12.052Z,2.03
2023-03-04T23:31:39.772Z,1.93
2023-03-04T23:34:07.299Z,2.33
2023-03-04T23:36:36.263Z,5.60
2023-03-04T23:39:05.522Z,1.40
2023-03-04T23:41:34.410Z,1.83
2023-03-04T23:44:02.381Z,1.87
2023-03-04T23:46:29.804Z,1.70
2023-03-04T23:48:57.597Z,1.30
2023-03-04T23:51:27.878Z,2.43
2023-03-04T23:53:56.095Z,1.70
2023-03-04T23:56:30.432Z,2.33
2023-03-04T23:58:59.183Z,1.93
